Time;durP1;ratioP1;P1;durP2;ratioP2;P2;SDS_P1;SDS_P2;PMS_P1;PMS_P2;Temp;Humidity;BMP_temperature;BMP_pressure;BME280_temperature;BME280_humidity;BME280_pressure;Samples;Min_cycle;Max_cycle;Signal;HPM_P1;HPM_P2
2022/11/26 00:01:41;;;;;;;9.97;5.77;;;7.60;99.90;7.50;101141.00;;;;4981491;28;91317;-64
2022/11/26 00:04:08;;;;;;;7.67;5.60;;;7.80;99.90;7.50;101145.00;;;;4984163;27;102876;-66
2022/11/26 00:06:40;;;;;;;9.73;6.40;;;7.60;99.90;7.40;101140.00;;;;4986671;28;87837;-65
2022/11/26 00:09:18;;;;;;;10.50;6.13;;;7.60;99.90;7.40;101149.00;;;;4974461;28;88265;-66
2022/11/26 00:11:43;;;;;;;9.23;5.93;;;7.60;99.90;7.50;101141.00;;;;4977135;28;88686;-66
2022/11/26 00:14:16;;;;;;;9.93;5.80;;;7.60;99.90;7.50;101149.00;;;;4991829;27;111850;-66
2022/11/26 00:16:43;;;;;;;8.33;5.90;;;7.60;99.90;7.50;101145.00;;;;4988231;28;93587;-66
2022/11/26 00:19:09;;;;;;;10.17;6.43;;;7.60;99.90;7.50;101150.00;;;;4988859;28;102347;-67
2022/11/26 00:21:40;;;;;;;12.33;7.17;;;7.60;99.90;7.40;101147.00;;;;4985852;27;102812;-65
2022/11/26 00:24:26;;;;;;;8.50;4.93;;;7.60;99.90;7.40;101156.00;;;;4950444;28;106099;-65
2022/11/26 00:26:53;;;;;;;8.40;5.37;;;7.60;99.90;7.50;101151.00;;;;4963893;28;87932;-65
2022/11/26 00:29:18;;;;;;;7.77;5.40;;;7.60;99.90;7.40;101165.00;;;;4972796;28;103311;-67
2022/11/26 00:31:44;;;;;;;7.03;5.70;;;7.60;99.90;7.40;101159.00;;;;4981332;28;98210;-64
2022/11/26 00:34:09;;;;;;;13.33;7.50;;;7.60;99.90;7.40;101149.00;;;;4977924;28;110602;-66
2022/11/26 00:36:35;;;;;;;9.80;6.57;;;7.60;99.90;7.40;101161.00;;;;4982543;27;108161;-66
2022/11/26 00:39:06;;;;;;;11.47;5.33;;;7.80;99.90;7.40;101164.00;;;;4987484;27;117055;-67
2022/11/26 00:41:37;;;;;;;8.17;6.00;;;8.00;99.90;7.40;101163.00;;;;4990784;27;87890;-65
2022/11/26 00:44:15;;;;;;;9.07;5.90;;;7.70;99.90;7.40;101164.00;;;;4987360;27;88021;-65
2022/11/26 00:46:41;;;;;;;7.23;5.00;;;7.60;99.90;7.40;101166.00;;;;4991898;27;87185;-65
2022/11/26 00:49:07;;;;;;;8.27;6.27;;;7.80;99.90;7.40;101169.00;;;;4987580;27;118091;-67
2022/11/26 00:51:32;;;;;;;7.30;6.37;;;7.60;99.90;7.40;101181.00;;;;4990967;27;116894;-66
2022/11/26 00:54:01;;;;;;;8.07;5.70;;;7.90;99.90;7.40;101174.00;;;;4971112;28;110413;-66
2022/11/26 00:56:27;;;;;;;7.90;6.03;;;7.50;99.90;7.40;101182.00;;;;4991302;27;98308;-66
2022/11/26 00:58:53;;;;;;;16.07;6.83;;;7.50;99.90;7.40;101189.00;;;;4988223;27;89008;-65
2022/11/26 01:01:26;;;;;;;11.50;6.40;;;7.50;99.90;7.40;101195.00;;;;4984638;27;116459;-66
2022/11/26 01:03:51;;;;;;;10.90;7.07;;;7.50;99.90;7.40;101191.00;;;;4958498;28;87748;-66
2022/11/26 01:06:26;;;;;;;11.17;5.80;;;8.10;99.90;7.40;101195.00;;;;4986241;27;109347;-65
2022/11/26 01:08:52;;;;;;;10.67;5.80;;;7.50;99.90;7.40;101196.00;;;;4989855;27;108725;-65
2022/11/26 01:11:21;;;;;;;9.03;6.47;;;7.60;99.90;7.40;101202.00;;;;4987348;27;110324;-66
2022/11/26 01:13:50;;;;;;;9.23;5.77;;;7.50;99.90;7.40;101199.00;;;;4989669;27;87687;-66
2022/11/26 01:16:30;;;;;;;10.53;5.23;;;7.50;99.90;7.40;101206.00;;;;4989458;27;87849;-66
2022/11/26 01:18:58;;;;;;;8.03;5.17;;;7.50;99.90;7.40;101198.00;;;;4992927;27;90048;-67
2022/11/26 01:21:29;;;;;;;9.23;6.23;;;7.50;99.90;7.40;101205.00;;;;4989989;28;88171;-67
2022/11/26 01:23:54;;;;;;;9.90;5.83;;;7.50;99.90;7.40;101207.00;;;;4985400;27;88608;-67
2022/11/26 01:26:26;;;;;;;7.93;6.03;;;7.50;99.90;7.30;101205.00;;;;4992836;27;107858;-67
2022/11/26 01:28:53;;;;;;;17.87;6.33;;;7.60;99.90;7.30;101213.00;;;;4993291;27;88318;-67
2022/11/26 01:31:25;;;;;;;7.67;5.37;;;8.10;99.90;7.30;101215.00;;;;4977829;28;87887;-67
2022/11/26 01:33:52;;;;;;;8.13;5.33;;;7.60;99.90;7.30;101209.00;;;;4994630;27;87791;-68
2022/11/26 01:36:27;;;;;;;11.77;6.13;;;7.60;99.90;7.30;101217.00;;;;4988192;27;86975;-66
2022/11/26 01:39:19;;;;;;;7.87;5.10;;;7.40;99.90;7.30;101210.00;;;;4976544;27;88029;-66
2022/11/26 01:41:51;;;;;;;8.63;5.83;;;7.40;99.90;7.30;101222.00;;;;4988948;28;87789;-67
2022/11/26 01:44:30;;;;;;;7.00;5.03;;;7.40;99.90;7.30;101207.00;;;;4988913;28;88785;-64
2022/11/26 01:46:58;;;;;;;8.63;5.00;;;7.50;99.90;7.30;101222.00;;;;4995243;28;88071;-67
2022/11/26 01:49:31;;;;;;;5.73;5.10;;;7.70;99.90;7.30;101220.00;;;;4975425;28;102269;-65
2022/11/26 01:52:12;;;;;;;9.60;5.67;;;7.40;99.90;7.30;101230.00;;;;4988494;28;100794;-64
2022/11/26 01:54:41;;;;;;;11.83;4.97;;;7.40;99.90;7.30;101224.00;;;;4994488;28;87756;-65
2022/11/26 01:57:14;;;;;;;7.67;4.83;;;7.60;99.90;7.30;101227.00;;;;4981646;28;87918;-65
2022/11/26 01:59:44;;;;;;;7.33;5.30;;;7.80;99.90;7.30;101224.00;;;;4995424;28;109558;-67
2022/11/26 02:02:10;;;;;;;8.10;6.03;;;7.40;99.90;7.30;101233.00;;;;4973821;28;110815;-65
2022/11/26 02:04:48;;;;;;;12.20;6.37;;;7.70;99.90;7.30;101234.00;;;;4995119;28;87839;-65
2022/11/26 02:07:13;;;;;;;12.03;5.47;;;7.50;99.90;7.30;101240.00;;;;4975850;28;99757;-65
2022/11/26 02:09:39;;;;;;;11.83;5.27;;;7.40;99.90;7.30;101240.00;;;;4984357;28;118722;-66
2022/11/26 02:12:05;;;;;;;7.00;5.10;;;7.40;99.90;7.30;101253.00;;;;4988563;28;117313;-67
2022/11/26 02:14:35;;;;;;;8.43;5.70;;;7.40;99.90;7.30;101257.00;;;;4971368;28;110165;-65
2022/11/26 02:17:35;;;;;;;9.50;5.27;;;8.00;99.90;7.30;101257.00;;;;4976115;28;87997;-66
2022/11/26 02:20:17;;;;;;;9.60;6.43;;;7.50;99.90;7.30;101259.00;;;;4991202;27;87870;-66
2022/11/26 02:22:49;;;;;;;8.70;5.73;;;7.40;99.90;7.30;101268.00;;;;4990596;27;87968;-66
2022/11/26 02:25:41;;;;;;;7.23;5.40;;;7.40;99.90;7.30;101275.00;;;;4991909;28;87736;-66
2022/11/26 02:28:26;;;;;;;10.37;6.33;;;7.40;99.90;7.30;101273.00;;;;4976046;28;102590;-67
2022/11/26 02:31:11;;;;;;;8.97;5.83;;;7.40;99.90;7.20;101280.00;;;;4989906;27;101387;-65
2022/11/26 02:34:10;;;;;;;7.27;4.40;;;7.40;99.90;7.20;101280.00;;;;4978137;28;88705;-65
2022/11/26 02:37:00;;;;;;;10.90;5.77;;;7.40;99.90;7.20;101283.00;;;;4967899;28;91948;-66
2022/11/26 02:39:27;;;;;;;11.23;6.73;;;7.40;99.90;7.20;101278.00;;;;4978068;28;87968;-66
2022/11/26 02:41:57;;;;;;;9.80;6.00;;;7.40;99.90;7.20;101273.00;;;;4990537;28;88063;-66
2022/11/26 02:44:30;;;;;;;8.20;5.53;;;7.40;99.90;7.20;101279.00;;;;4992109;27;88659;-66
2022/11/26 02:47:10;;;;;;;11.40;5.90;;;7.40;99.90;7.20;101286.00;;;;4978913;28;87778;-65
2022/11/26 02:49:38;;;;;;;10.37;5.67;;;7.90;99.90;7.20;101288.00;;;;4978139;28;87731;-66
2022/11/26 02:52:07;;;;;;;12.57;6.27;;;7.50;99.90;7.20;101297.00;;;;4978098;28;104980;-66
2022/11/26 02:54:34;;;;;;;18.63;6.13;;;7.30;99.90;7.20;101295.00;;;;4991411;27;87937;-65
2022/11/26 02:57:05;;;;;;;11.67;6.57;;;7.40;99.90;7.20;101297.00;;;;4971558;28;110502;-66
2022/11/26 02:59:31;;;;;;;10.77;6.60;;;7.30;99.90;7.20;101293.00;;;;4978921;28;87920;-66
2022/11/26 03:02:06;;;;;;;8.73;5.37;;;7.40;99.90;7.20;101307.00;;;;4969009;28;119200;-66
2022/11/26 03:04:39;;;;;;;8.67;5.67;;;7.40;99.90;7.20;101299.00;;;;4992183;27;106276;-66
2022/11/26 03:07:06;;;;;;;11.00;6.97;;;7.70;99.90;7.20;101299.00;;;;4976992;28;87938;-66
2022/11/26 03:09:52;;;;;;;6.97;5.57;;;8.00;99.90;7.20;101304.00;;;;4977210;28;105277;-66
2022/11/26 03:12:18;;;;;;;8.77;6.70;;;7.40;99.90;7.20;101308.00;;;;4992202;28;87874;-66
2022/11/26 03:14:44;;;;;;;10.93;6.70;;;7.40;99.90;7.20;101313.00;;;;4994066;28;95233;-66
2022/11/26 03:17:09;;;;;;;8.37;5.83;;;7.40;99.90;7.20;101310.00;;;;4987960;28;88716;-66
2022/11/26 03:19:35;;;;;;;7.70;6.20;;;7.40;99.90;7.20;101316.00;;;;4990502;28;108477;-66
2022/11/26 03:22:01;;;;;;;9.53;6.87;;;7.70;99.90;7.20;101321.00;;;;4989265;28;89040;-66
2022/11/26 03:24:26;;;;;;;8.43;4.97;;;7.80;99.90;7.20;101323.00;;;;4989270;27;117315;-66
2022/11/26 03:26:52;;;;;;;12.63;6.03;;;7.40;99.90;7.20;101332.00;;;;4987172;27;88656;-66
2022/11/26 03:29:18;;;;;;;9.80;5.80;;;7.40;99.90;7.20;101331.00;;;;4990667;28;106406;-65
2022/11/26 03:31:43;;;;;;;11.33;6.27;;;7.50;99.90;7.20;101326.00;;;;4987620;28;116748;-65
2022/11/26 03:34:09;;;;;;;15.13;7.00;;;7.80;99.90;7.20;101325.00;;;;4987844;28;116909;-65
2022/11/26 03:36:35;;;;;;;9.13;5.93;;;7.40;99.90;7.20;101343.00;;;;4987047;28;111535;-65
2022/11/26 03:39:00;;;;;;;8.33;5.97;;;7.40;99.90;7.20;101338.00;;;;4971214;28;106967;-66
2022/11/26 03:41:26;;;;;;;8.50;5.93;;;7.40;99.90;7.20;101332.00;;;;4969280;28;116741;-65
2022/11/26 03:43:52;;;;;;;10.00;5.77;;;7.50;99.90;7.20;101344.00;;;;4962035;28;88550;-66
2022/11/26 03:46:17;;;;;;;8.47;5.67;;;7.40;99.90;7.20;101345.00;;;;4967322;28;110698;-65
2022/11/26 03:48:43;;;;;;;9.57;6.33;;;7.40;99.90;7.20;101350.00;;;;4968731;28;90686;-65
2022/11/26 03:51:09;;;;;;;8.27;5.80;;;7.90;99.90;7.20;101357.00;;;;4970013;28;89979;-65
2022/11/26 03:53:34;;;;;;;12.77;5.53;;;7.80;99.90;7.20;101346.00;;;;4960871;28;118365;-64
2022/11/26 03:56:00;;;;;;;7.80;5.57;;;7.30;99.90;7.20;101351.00;;;;4969153;28;109802;-65
2022/11/26 03:58:26;;;;;;;19.33;6.20;;;7.90;99.90;7.20;101359.00;;;;4961000;28;107307;-65
2022/11/26 04:00:51;;;;;;;10.90;6.33;;;7.40;99.90;7.20;101355.00;;;;4967340;28;118170;-65
2022/11/26 04:03:17;;;;;;;9.27;6.93;;;7.40;99.90;7.30;101356.00;;;;4961539;28;117649;-65
2022/11/26 04:05:43;;;;;;;13.83;6.13;;;7.40;99.90;7.30;101362.00;;;;4967351;28;87667;-64
2022/11/26 04:08:08;;;;;;;9.03;6.17;;;7.70;99.90;7.30;101363.00;;;;4964922;28;109111;-65
2022/11/26 04:10:35;;;;;;;11.47;7.03;;;7.40;99.90;7.30;101365.00;;;;4966600;28;117719;-65
2022/11/26 04:13:01;;;;;;;9.80;6.93;;;7.40;99.90;7.30;101361.00;;;;4961682;28;115576;-65
2022/11/26 04:15:26;;;;;;;7.67;5.70;;;7.40;99.90;7.30;101361.00;;;;4973348;28;109994;-66
2022/11/26 04:17:52;;;;;;;7.60;5.53;;;7.40;99.90;7.30;101357.00;;;;4971560;28;108306;-65
2022/11/26 04:20:18;;;;;;;8.13;6.03;;;7.40;99.90;7.30;101360.00;;;;4976582;28;98543;-65
2022/11/26 04:22:44;;;;;;;12.33;6.10;;;7.40;99.90;7.30;101360.00;;;;4966328;28;118198;-64
2022/11/26 04:25:09;;;;;;;8.70;6.67;;;7.40;99.90;7.30;101355.00;;;;4972359;28;109081;-64
2022/11/26 04:27:35;;;;;;;9.97;5.00;;;7.90;99.90;7.30;101366.00;;;;4971826;28;88054;-65
2022/11/26 04:30:01;;;;;;;9.13;6.30;;;7.40;99.90;7.20;101366.00;;;;4973039;28;117349;-65
2022/11/26 04:32:26;;;;;;;9.40;6.93;;;7.70;99.90;7.20;101383.00;;;;4962801;28;117806;-65
2022/11/26 04:34:52;;;;;;;10.07;6.40;;;7.50;99.90;7.20;101378.00;;;;4968960;28;108635;-65
2022/11/26 04:37:18;;;;;;;10.63;6.50;;;7.40;99.90;7.20;101384.00;;;;4975295;27;108271;-65
2022/11/26 04:39:43;;;;;;;13.30;5.40;;;7.40;99.90;7.20;101391.00;;;;4994420;27;119415;-65
2022/11/26 04:42:09;;;;;;;7.20;5.07;;;7.40;99.90;7.20;101396.00;;;;4991817;28;89458;-66
2022/11/26 04:44:35;;;;;;;10.87;5.77;;;7.40;99.90;7.20;101406.00;;;;4988306;27;110276;-65
2022/11/26 04:47:00;;;;;;;11.63;5.83;;;7.40;99.90;7.20;101409.00;;;;4992800;28;88034;-65
2022/11/26 04:49:26;;;;;;;10.97;6.53;;;8.10;99.90;7.20;101419.00;;;;4994185;28;117005;-65
2022/11/26 04:51:52;;;;;;;6.50;5.07;;;7.30;99.90;7.20;101419.00;;;;4995156;28;116487;-65
2022/11/26 04:54:17;;;;;;;10.73;6.90;;;7.30;99.90;7.20;101413.00;;;;4995160;28;108688;-65
2022/11/26 04:56:43;;;;;;;14.43;6.53;;;7.30;99.90;7.20;101425.00;;;;4989414;28;109088;-66
2022/11/26 04:59:09;;;;;;;7.97;5.50;;;7.30;99.90;7.20;101435.00;;;;4994084;28;88891;-66
2022/11/26 05:01:34;;;;;;;11.03;6.40;;;7.70;99.90;7.20;101429.00;;;;4989895;28;115336;-66
2022/11/26 05:04:00;;;;;;;12.30;6.47;;;7.90;99.90;7.20;101429.00;;;;4995857;27;108781;-66
2022/11/26 05:06:26;;;;;;;10.43;6.67;;;7.40;99.90;7.20;101441.00;;;;4986321;28;109042;-65
2022/11/26 05:08:51;;;;;;;9.37;6.83;;;7.30;99.90;7.20;101445.00;;;;4991930;27;88209;-65
2022/11/26 05:11:17;;;;;;;19.03;8.77;;;7.40;99.90;7.20;101457.00;;;;4990871;28;117377;-66
2022/11/26 05:13:43;;;;;;;18.23;8.13;;;7.30;99.90;7.20;101449.00;;;;4992153;28;87841;-65
2022/11/26 05:16:08;;;;;;;8.17;6.63;;;7.40;99.90;7.20;101467.00;;;;4989710;28;87720;-65
2022/11/26 05:18:34;;;;;;;15.87;7.23;;;7.40;99.90;7.30;101448.00;;;;4988352;28;87926;-65
2022/11/26 05:21:00;;;;;;;12.57;8.17;;;7.60;99.90;7.30;101454.00;;;;4990006;28;118241;-65
2022/11/26 05:23:25;;;;;;;11.77;7.37;;;7.40;99.90;7.30;101455.00;;;;4993138;28;95100;-65
2022/11/26 05:25:51;;;;;;;14.33;8.00;;;7.90;99.90;7.30;101460.00;;;;4990608;27;108654;-66
2022/11/26 05:28:17;;;;;;;10.70;6.47;;;7.50;99.90;7.30;101460.00;;;;4992712;28;118578;-66
2022/11/26 05:30:42;;;;;;;19.03;8.50;;;7.40;99.90;7.30;101467.00;;;;4991215;28;118949;-66
2022/11/26 05:33:08;;;;;;;13.00;7.30;;;7.60;99.90;7.30;101469.00;;;;4995225;27;87870;-66
2022/11/26 05:35:34;;;;;;;15.33;8.23;;;8.10;99.90;7.30;101471.00;;;;4993060;28;107426;-66
2022/11/26 05:37:59;;;;;;;12.27;8.17;;;8.00;99.90;7.30;101475.00;;;;4993770;27;96615;-66
2022/11/26 05:40:25;;;;;;;16.30;8.30;;;7.50;99.90;7.30;101478.00;;;;4989059;28;116651;-66
2022/11/26 05:42:51;;;;;;;12.90;7.70;;;7.40;99.90;7.30;101477.00;;;;4993209;28;110456;-66
2022/11/26 05:45:16;;;;;;;14.23;8.47;;;7.50;99.90;7.30;101475.00;;;;4989998;27;109681;-66
2022/11/26 05:47:42;;;;;;;12.67;8.67;;;7.40;99.90;7.30;101468.00;;;;4992421;27;89229;-66
2022/11/26 05:50:08;;;;;;;12.57;8.10;;;7.50;99.90;7.30;101480.00;;;;4993887;27;102795;-66
2022/11/26 05:52:34;;;;;;;11.90;8.17;;;7.50;99.90;7.40;101474.00;;;;4992315;27;88846;-67
2022/11/26 05:55:00;;;;;;;13.27;9.17;;;8.10;99.90;7.40;101479.00;;;;4989990;27;87889;-67
2022/11/26 05:57:25;;;;;;;14.37;8.67;;;7.50;99.90;7.40;101478.00;;;;4988928;27;118412;-67
2022/11/26 05:59:51;;;;;;;13.97;8.60;;;7.50;99.90;7.40;101482.00;;;;4994555;28;116650;-67
2022/11/26 06:02:17;;;;;;;12.57;8.07;;;7.70;99.90;7.40;101487.00;;;;4995487;28;89014;-66
2022/11/26 06:04:43;;;;;;;11.90;7.57;;;7.60;99.90;7.40;101488.00;;;;4991666;28;91352;-67
2022/11/26 06:07:09;;;;;;;12.80;8.17;;;7.70;99.90;7.40;101491.00;;;;4990953;27;114399;-66
2022/11/26 06:09:35;;;;;;;18.87;9.43;;;7.60;99.90;7.40;101488.00;;;;4995017;28;93676;-67
2022/11/26 06:12:01;;;;;;;12.93;9.03;;;7.60;99.90;7.40;101491.00;;;;4981171;28;87921;-66
2022/11/26 06:14:27;;;;;;;13.87;8.27;;;7.50;99.90;7.40;101501.00;;;;4991558;28;87861;-67
2022/11/26 06:16:53;;;;;;;13.90;8.80;;;7.50;99.90;7.40;101511.00;;;;4987726;28;88741;-67
2022/11/26 06:19:19;;;;;;;20.47;8.57;;;7.60;99.90;7.40;101514.00;;;;4991688;27;115604;-67
2022/11/26 06:21:44;;;;;;;12.33;7.30;;;7.50;99.90;7.40;101505.00;;;;4991871;28;87722;-68
2022/11/26 06:24:10;;;;;;;12.27;8.87;;;8.30;99.90;7.40;101512.00;;;;4972687;28;107429;-67
2022/11/26 06:26:36;;;;;;;19.77;9.40;;;7.50;99.90;7.40;101504.00;;;;4991461;28;117348;-67
2022/11/26 06:29:02;;;;;;;17.70;9.40;;;8.00;99.90;7.40;101514.00;;;;4989394;28;117259;-67
2022/11/26 06:31:28;;;;;;;13.47;8.33;;;7.60;99.90;7.40;101517.00;;;;4990722;28;110495;-67
2022/11/26 06:33:55;;;;;;;19.43;8.87;;;7.90;99.90;7.40;101529.00;;;;4990985;27;99675;-67
2022/11/26 06:36:22;;;;;;;12.23;8.50;;;7.90;99.90;7.40;101532.00;;;;4989875;27;88319;-68
2022/11/26 06:38:47;;;;;;;14.47;8.50;;;7.60;99.90;7.40;101534.00;;;;4991348;27;110500;-68
2022/11/26 06:41:13;;;;;;;21.80;10.63;;;7.90;99.90;7.40;101550.00;;;;4990353;27;107211;-68
2022/11/26 06:43:39;;;;;;;16.60;9.83;;;7.80;99.90;7.40;101532.00;;;;4980463;27;108876;-68
2022/11/26 06:46:08;;;;;;;10.93;8.33;;;7.50;99.90;7.40;101549.00;;;;4992172;27;88057;-69
2022/11/26 06:48:35;;;;;;;15.97;9.27;;;7.60;99.90;7.40;101546.00;;;;4989985;28;105732;-68
2022/11/26 06:51:09;;;;;;;17.53;9.83;;;7.60;99.90;7.40;101548.00;;;;4993254;27;87875;-68
2022/11/26 06:53:35;;;;;;;16.53;9.97;;;7.60;99.90;7.50;101547.00;;;;4982288;27;88074;-68
2022/11/26 06:56:05;;;;;;;17.27;10.80;;;7.90;99.90;7.40;101557.00;;;;4988598;27;87903;-68
2022/11/26 06:58:31;;;;;;;11.43;8.53;;;8.30;99.90;7.50;101554.00;;;;4990384;27;88920;-67
2022/11/26 07:00:57;;;;;;;17.80;8.57;;;7.60;99.90;7.50;101569.00;;;;4992302;27;102009;-67
2022/11/26 07:03:23;;;;;;;18.40;9.50;;;7.60;99.90;7.50;101563.00;;;;4975391;27;105780;-66
2022/11/26 07:05:49;;;;;;;17.40;9.90;;;7.60;99.90;7.50;101576.00;;;;4986853;27;90019;-66
2022/11/26 07:08:15;;;;;;;13.47;10.17;;;7.80;99.90;7.50;101563.00;;;;4987549;27;119338;-66
2022/11/26 07:10:41;;;;;;;17.83;9.70;;;7.60;99.90;7.50;101571.00;;;;4989003;27;87804;-68
2022/11/26 07:13:06;;;;;;;18.70;8.53;;;7.60;99.90;7.50;101577.00;;;;4982732;27;109236;-68
2022/11/26 07:15:32;;;;;;;16.37;9.23;;;7.60;99.90;7.50;101578.00;;;;4988837;27;118494;-69
2022/11/26 07:17:58;;;;;;;15.80;9.80;;;7.60;99.90;7.50;101578.00;;;;4971665;27;117918;-68
2022/11/26 07:20:25;;;;;;;11.90;8.70;;;7.70;99.90;7.50;101578.00;;;;4989284;27;88023;-68
2022/11/26 07:22:52;;;;;;;18.00;8.80;;;7.70;99.90;7.50;101590.00;;;;4980877;28;86838;-66
2022/11/26 07:25:18;;;;;;;13.53;8.53;;;8.00;99.90;7.60;101593.00;;;;4988581;27;102843;-66
2022/11/26 07:27:44;;;;;;;15.63;8.67;;;7.70;99.90;7.60;101598.00;;;;4989975;27;88793;-66
2022/11/26 07:30:11;;;;;;;12.97;9.17;;;7.70;99.90;7.60;101595.00;;;;4986249;27;92257;-66
2022/11/26 07:32:37;;;;;;;13.83;8.73;;;7.70;99.90;7.60;101584.00;;;;4975806;27;103574;-66
2022/11/26 07:35:04;;;;;;;21.20;8.70;;;7.20;99.90;7.60;101598.00;;;;4985663;27;104046;-66
2022/11/26 07:37:32;;;;;;;19.30;8.87;;;7.70;99.90;7.70;101607.00;;;;4986376;27;109148;-66
2022/11/26 07:39:57;;;;;;;12.20;7.77;;;7.80;99.90;7.70;101603.00;;;;4984697;27;105170;-66
2022/11/26 07:42:23;;;;;;;13.77;8.37;;;7.90;99.90;7.70;101608.00;;;;4979619;28;99698;-66
2022/11/26 07:44:49;;;;;;;13.13;7.43;;;7.80;99.90;7.70;101605.00;;;;4993397;27;97980;-66
2022/11/26 07:47:15;;;;;;;12.83;7.00;;;7.80;99.90;7.70;101606.00;;;;4991829;27;87886;-67
2022/11/26 07:49:41;;;;;;;19.00;7.63;;;7.80;99.90;7.70;101613.00;;;;4990361;27;87927;-68
2022/11/26 07:52:06;;;;;;;8.43;6.73;;;7.90;99.90;7.70;101607.00;;;;4984050;27;108448;-67
2022/11/26 07:54:32;;;;;;;18.83;8.20;;;7.80;99.90;7.70;101615.00;;;;4988093;28;118600;-68
2022/11/26 07:56:58;;;;;;;13.00;7.17;;;7.80;99.90;7.70;101614.00;;;;4984695;27;119294;-67
2022/11/26 07:59:23;;;;;;;11.27;7.63;;;8.00;99.90;7.80;101618.00;;;;4990631;27;105139;-67
2022/11/26 08:01:49;;;;;;;14.00;6.47;;;7.90;99.90;7.80;101630.00;;;;4985432;27;87729;-67
2022/11/26 08:04:15;;;;;;;18.33;7.07;;;8.40;99.90;7.80;101620.00;;;;4980353;27;117280;-67
2022/11/26 08:06:40;;;;;;;9.20;6.30;;;7.90;99.90;7.80;101629.00;;;;4985800;27;90856;-67
2022/11/26 08:09:06;;;;;;;10.43;6.63;;;8.10;99.90;7.80;101639.00;;;;4988968;27;111231;-65
2022/11/26 08:11:33;;;;;;;10.47;5.73;;;7.90;99.90;7.90;101631.00;;;;4982541;27;86833;-67
2022/11/26 08:14:02;;;;;;;9.80;6.40;;;8.00;99.90;7.90;101642.00;;;;4981065;27;116798;-66
2022/11/26 08:16:28;;;;;;;9.83;5.37;;;8.00;99.90;7.90;101646.00;;;;4991190;27;88054;-67
2022/11/26 08:18:56;;;;;;;14.93;5.87;;;8.00;99.90;7.90;101649.00;;;;4988570;27;102555;-66
2022/11/26 08:21:23;;;;;;;18.27;6.70;;;8.00;99.90;8.00;101653.00;;;;4973424;28;87880;-66
2022/11/26 08:23:50;;;;;;;10.57;5.80;;;8.10;99.90;8.00;101651.00;;;;4981460;28;110943;-65
2022/11/26 08:26:16;;;;;;;6.83;5.13;;;8.10;99.90;8.00;101660.00;;;;4989116;27;89473;-66
2022/11/26 08:28:42;;;;;;;11.33;5.43;;;8.10;99.90;8.00;101656.00;;;;4988365;27;87992;-66
2022/11/26 08:31:10;;;;;;;10.63;5.47;;;8.10;99.90;8.00;101659.00;;;;4972672;28;99544;-67
2022/11/26 08:33:36;;;;;;;10.27;5.13;;;8.10;99.90;8.00;101660.00;;;;4980003;28;88213;-67
2022/11/26 08:36:02;;;;;;;7.33;4.43;;;8.20;99.90;8.00;101658.00;;;;4986102;27;87290;-66
2022/11/26 08:38:29;;;;;;;11.67;5.07;;;8.20;99.90;8.00;101668.00;;;;4987155;27;88145;-66
2022/11/26 08:41:03;;;;;;;7.67;4.57;;;8.20;99.90;8.00;101671.00;;;;4986433;27;87843;-66
2022/11/26 08:43:29;;;;;;;12.47;5.40;;;8.20;99.90;8.10;101676.00;;;;4980448;27;112224;-67
2022/11/26 08:45:58;;;;;;;6.87;3.97;;;8.10;99.90;8.10;101674.00;;;;4973827;28;87958;-66
2022/11/26 08:48:26;;;;;;;5.03;3.63;;;8.20;99.90;8.10;101681.00;;;;4987692;28;93041;-66
2022/11/26 08:51:08;;;;;;;7.10;4.97;;;8.20;99.90;8.10;101684.00;;;;4986287;27;98717;-67
2022/11/26 08:53:35;;;;;;;16.37;4.93;;;8.20;99.90;8.10;101686.00;;;;4979543;28;88174;-67
2022/11/26 08:56:06;;;;;;;7.33;3.73;;;8.20;99.90;8.10;101685.00;;;;4990811;27;91436;-67
2022/11/26 08:58:39;;;;;;;8.67;4.50;;;8.30;99.90;8.10;101685.00;;;;4988216;27;90148;-65
2022/11/26 09:01:10;;;;;;;5.40;3.33;;;8.20;99.90;8.10;101694.00;;;;4985021;27;102887;-66
2022/11/26 09:03:36;;;;;;;8.57;3.60;;;8.30;99.90;8.20;101688.00;;;;4978773;28;97960;-66
2022/11/26 09:06:03;;;;;;;14.13;5.00;;;8.30;99.90;8.20;101693.00;;;;4990609;27;88484;-65
2022/11/26 09:08:30;;;;;;;9.63;3.47;;;8.30;99.90;8.20;101696.00;;;;4990188;27;88727;-67
2022/11/26 09:10:56;;;;;;;7.17;4.57;;;8.30;99.90;8.20;101704.00;;;;4989583;27;87790;-66
2022/11/26 09:13:22;;;;;;;5.97;4.00;;;8.40;99.90;8.20;101697.00;;;;4980811;27;95279;-65
2022/11/26 09:15:49;;;;;;;5.33;3.20;;;8.30;99.90;8.20;101707.00;;;;4987026;27;88463;-67
2022/11/26 09:18:16;;;;;;;6.33;3.90;;;8.40;99.90;8.30;101697.00;;;;4986645;28;109761;-67
2022/11/26 09:20:42;;;;;;;7.33;3.93;;;8.40;99.90;8.30;101712.00;;;;4984457;27;93477;-66
2022/11/26 09:23:08;;;;;;;6.60;4.67;;;8.40;99.90;8.30;101713.00;;;;4982435;28;88474;-66
2022/11/26 09:25:38;;;;;;;9.07;4.00;;;8.40;99.90;8.30;101714.00;;;;4990260;27;110021;-66
2022/11/26 09:28:04;;;;;;;5.43;3.50;;;8.40;99.90;8.30;101714.00;;;;4991777;27;87958;-65
2022/11/26 09:30:31;;;;;;;14.53;3.93;;;8.60;99.90;8.30;101707.00;;;;4990842;28;87791;-66
2022/11/26 09:32:56;;;;;;;6.20;3.27;;;8.40;99.90;8.30;101716.00;;;;4982146;27;110040;-65
2022/11/26 09:35:22;;;;;;;14.07;4.03;;;8.40;99.90;8.30;101720.00;;;;4989659;27;119477;-66
2022/11/26 09:37:48;;;;;;;5.77;3.80;;;8.40;99.90;8.30;101718.00;;;;4992023;27;110306;-66
2022/11/26 09:40:18;;;;;;;8.20;3.10;;;8.40;99.90;8.30;101720.00;;;;4991889;27;109351;-66
2022/11/26 09:43:06;;;;;;;8.97;3.37;;;8.50;99.90;8.30;101730.00;;;;4990627;27;100889;-66
2022/11/26 09:45:48;;;;;;;6.20;3.50;;;8.40;99.90;8.30;101727.00;;;;4977288;27;88832;-65
2022/11/26 09:48:20;;;;;;;10.77;4.20;;;8.50;99.90;8.40;101745.00;;;;4993719;27;88117;-66
2022/11/26 09:50:48;;;;;;;3.60;2.70;;;8.50;99.90;8.40;101734.00;;;;4990527;27;87001;-67
2022/11/26 09:53:24;;;;;;;4.67;3.37;;;8.50;99.90;8.40;101733.00;;;;4991353;27;89065;-65
2022/11/26 09:55:54;;;;;;;11.67;3.60;;;8.50;99.90;8.40;101731.00;;;;4978575;27;87859;-66
2022/11/26 09:58:33;;;;;;;6.70;3.47;;;8.50;99.90;8.40;101740.00;;;;4979955;27;88641;-65
2022/11/26 10:00:59;;;;;;;9.53;2.97;;;8.60;99.90;8.40;101740.00;;;;4977049;28;92406;-65
2022/11/26 10:03:38;;;;;;;6.23;3.80;;;8.60;99.90;8.40;101740.00;;;;4973574;28;104852;-66
2022/11/26 10:06:23;;;;;;;4.67;3.47;;;8.60;99.90;8.50;101747.00;;;;4992461;27;111952;-67
2022/11/26 10:09:35;;;;;;;7.17;3.47;;;8.60;99.90;8.40;101748.00;;;;4977588;28;105215;-66
2022/11/26 10:12:40;;;;;;;6.33;2.70;;;8.60;99.90;8.40;101757.00;;;;4977430;28;88175;-66
2022/11/26 10:15:40;;;;;;;9.20;3.27;;;8.60;99.90;8.50;101764.00;;;;4975899;27;103922;-66
2022/11/26 10:18:24;;;;;;;7.07;3.20;;;8.60;99.90;8.50;101756.00;;;;4986566;27;91572;-65
2022/11/26 10:21:22;;;;;;;5.87;3.10;;;8.60;99.90;8.40;101752.00;;;;4980399;27;103213;-67
2022/11/26 10:23:57;;;;;;;7.67;2.70;;;8.60;99.90;8.40;101754.00;;;;4976614;28;87979;-67
2022/11/26 10:26:38;;;;;;;9.00;3.43;;;8.60;99.90;8.40;101761.00;;;;4974360;28;89139;-68
2022/11/26 10:29:21;;;;;;;5.80;3.13;;;8.60;99.90;8.40;101766.00;;;;4993876;27;89858;-68
2022/11/26 10:31:49;;;;;;;5.33;2.93;;;8.60;99.90;8.40;101759.00;;;;4990623;27;87621;-66
2022/11/26 10:34:28;;;;;;;7.80;2.77;;;8.60;99.90;8.40;101763.00;;;;4975543;27;88669;-68
2022/11/26 10:36:54;;;;;;;6.27;2.80;;;8.60;99.90;8.40;101763.00;;;;4970104;27;88203;-66
2022/11/26 10:39:20;;;;;;;5.57;2.40;;;8.60;99.90;8.50;101768.00;;;;4989823;27;115566;-65
2022/11/26 10:41:46;;;;;;;4.40;2.93;;;8.60;99.90;8.50;101774.00;;;;4995637;27;87964;-68
2022/11/26 10:44:35;;;;;;;6.40;2.40;;;8.60;99.90;8.40;101774.00;;;;4992761;27;87003;-66
2022/11/26 10:47:23;;;;;;;7.97;2.20;;;8.60;99.90;8.40;101769.00;;;;4973691;27;88282;-68
2022/11/26 10:49:52;;;;;;;6.73;2.77;;;8.60;99.90;8.40;101775.00;;;;4978598;27;87987;-65
2022/11/26 10:52:26;;;;;;;4.23;2.03;;;8.60;99.90;8.40;101780.00;;;;4991403;27;89248;-65
2022/11/26 10:55:22;;;;;;;2.67;2.20;;;8.60;99.90;8.40;101764.00;;;;4969043;28;100557;-67
2022/11/26 10:57:54;;;;;;;4.93;2.53;;;8.30;99.90;8.50;101787.00;;;;4989182;27;87657;-67
2022/11/26 11:00:32;;;;;;;3.57;2.23;;;8.60;99.90;8.50;101778.00;;;;4972433;28;110536;-68
2022/11/26 11:02:59;;;;;;;3.57;2.40;;;8.60;99.90;8.50;101777.00;;;;4975940;28;88240;-67
2022/11/26 11:05:25;;;;;;;5.63;2.30;;;8.60;99.90;8.50;101770.00;;;;4988923;27;87622;-65